This is the latest recevied weather packets stored in our database for station/object WC4PEM-15. If no packets are shown the sender has not sent any weather packets the latest 1 day(s).
| Time | Temp. | Humidity | Pressure | Rain* | Wind** | Luminosity | Snow |
|---|---|---|---|---|---|---|---|
| 1778027312 | 23.89° C | 63% | 1014.7 hPa | 0 mm | 5.36 m/s, 88° | - | - |
| 1778027100 | 23.89° C | 63% | 1014.7 hPa | 0 mm | 5.36 m/s, 88° | - | - |
| 1778027041 | 24.44° C | 63% | 1014.7 hPa | 0 mm | 4.92 m/s, 95° | - | - |
| 1778026800 | 24.44° C | 63% | 1014.7 hPa | 0 mm | 4.92 m/s, 95° | - | - |
| 1778026702 | 24.44° C | 62% | 1014.7 hPa | 0 mm | 5.36 m/s, 88° | - | - |
| 1778026538 | 24.44° C | 62% | 1014.7 hPa | 0 mm | 5.36 m/s, 88° | - | - |
| 1778026500 | 24.44° C | 63% | 1014.8 hPa | 0 mm | 4.92 m/s, 103° | - | - |
| 1778026200 | 24.44° C | 62% | 1014.7 hPa | 0 mm | 5.36 m/s, 88° | - | - |
| 1778025900 | 24.44° C | 62% | 1014.7 hPa | 0 mm | 5.36 m/s, 96° | - | - |
| 1778025790 | 25° C | 61% | 1014.4 hPa | 0 mm | 5.81 m/s, 111° | - | - |
| 1778025600 | 25° C | 61% | 1014.6 hPa | 0 mm | 5.36 m/s, 88° | - | - |
| 1778025466 | 25° C | 61% | 1014.4 hPa | 0 mm | 6.26 m/s, 99° | - | - |
| 1778025300 | 25° C | 61% | 1014.4 hPa | 0 mm | 5.81 m/s, 111° | - | - |
| 1778025000 | 25° C | 61% | 1014.4 hPa | 0 mm | 6.26 m/s, 99° | - | - |
| 1778024834 | 25° C | 60% | 1014.4 hPa | 0 mm | 6.26 m/s, 113° | - | - |
| 1778024700 | 25° C | 60% | 1014.4 hPa | 0 mm | 6.26 m/s, 113° | - | - |
| 1778024642 | 25.56° C | 60% | 1014.3 hPa | 0 mm | 6.26 m/s, 104° | - | - |
| 1778024400 | 25.56° C | 60% | 1014.3 hPa | 0 mm | 6.26 m/s, 104° | - | - |
| 1778024100 | 25.56° C | 60% | 1014.5 hPa | 0 mm | 6.71 m/s, 100° | - | - |
| 1778023825 | 25.56° C | 59% | 1014.4 hPa | 0 mm | 7.15 m/s, 104° | - | - |
| 1778023800 | 25.56° C | 59% | 1014.3 hPa | 0 mm | 7.15 m/s, 96° | - | - |
| 1778023677 | 25.56° C | 59% | 1014.4 hPa | 0 mm | 7.15 m/s, 104° | - | - |
| 1778023500 | 25.56° C | 59% | 1014.4 hPa | 0 mm | 7.15 m/s, 104° | - | - |
| 1778023396 | 26.11° C | 59% | 1014.4 hPa | 0 mm | 7.15 m/s, 105° | - | - |
| 1778023321 | 26.11° C | 59% | 1014.4 hPa | 0 mm | 7.15 m/s, 105° | - | - |
* Rain latest hour (hover to see other rain measurements)
** Current wind speed in m/s (hover to see current wind gust speed)